Time;durP1;ratioP1;P1;durP2;ratioP2;P2;SDS_P1;SDS_P2;PMS_P1;PMS_P2;Temp;Humidity;BMP_temperature;BMP_pressure;BME280_temperature;BME280_humidity;BME280_pressure;Samples;Min_cycle;Max_cycle;Signal;HPM_P1;HPM_P2
2021/03/03 00:01:53;;;;;;;17.43;9.40;;;10.40;96.10;;;;;;5035303;28;20234;-82
2021/03/03 00:04:18;;;;;;;14.50;10.50;;;10.30;96.40;;;;;;5061169;28;20177;-81
2021/03/03 00:06:44;;;;;;;14.40;10.33;;;10.20;96.30;;;;;;5079296;28;20193;-83
2021/03/03 00:09:10;;;;;;;12.63;9.90;;;10.20;96.60;;;;;;5059742;28;20185;-85
2021/03/03 00:11:35;;;;;;;16.70;9.50;;;10.20;96.60;;;;;;5060802;28;20304;-83
2021/03/03 00:14:01;;;;;;;13.57;9.30;;;10.30;96.80;;;;;;5041633;28;20639;-82
2021/03/03 00:16:27;;;;;;;15.70;9.60;;;10.20;96.70;;;;;;5053997;28;20267;-82
2021/03/03 00:18:52;;;;;;;16.93;10.70;;;10.20;96.70;;;;;;5039097;28;20210;-82
2021/03/03 00:21:18;;;;;;;15.47;10.10;;;10.30;96.60;;;;;;5047128;28;20212;-81
2021/03/03 00:23:44;;;;;;;16.40;11.13;;;10.30;96.60;;;;;;5021014;28;20216;-82
2021/03/03 00:26:10;;;;;;;14.43;9.73;;;10.30;96.50;;;;;;5054527;28;20440;-82
2021/03/03 00:28:35;;;;;;;13.93;9.80;;;9.90;96.70;;;;;;5053107;28;20725;-82
2021/03/03 00:31:01;;;;;;;13.27;9.83;;;10.40;96.30;;;;;;5062188;28;20559;-81
2021/03/03 00:33:27;;;;;;;18.00;10.47;;;10.50;96.40;;;;;;5059312;28;20630;-84
2021/03/03 00:35:52;;;;;;;15.40;9.83;;;10.40;96.30;;;;;;5057685;28;20201;-83
2021/03/03 00:38:18;;;;;;;14.33;9.77;;;10.40;96.40;;;;;;5052279;28;20582;-83
2021/03/03 00:40:44;;;;;;;19.57;9.70;;;10.70;96.50;;;;;;5045204;28;20774;-83
2021/03/03 00:43:09;;;;;;;15.50;10.57;;;10.70;96.40;;;;;;5050121;28;20189;-81
2021/03/03 00:45:35;;;;;;;18.50;10.50;;;10.40;96.20;;;;;;5057216;28;20643;-81
2021/03/03 00:48:01;;;;;;;15.50;9.27;;;10.60;96.20;;;;;;5035493;28;20194;-82
2021/03/03 00:50:26;;;;;;;15.63;9.40;;;10.50;96.20;;;;;;5019547;28;20194;-83
2021/03/03 00:52:52;;;;;;;14.43;9.60;;;10.50;96.20;;;;;;5040011;28;20219;-81
2021/03/03 00:55:17;;;;;;;20.90;10.20;;;10.50;96.20;;;;;;5035098;28;20181;-81
2021/03/03 00:57:43;;;;;;;16.03;10.77;;;10.50;96.20;;;;;;5051790;28;20178;-81
2021/03/03 01:00:10;;;;;;;18.63;9.60;;;10.50;96.20;;;;;;5061507;28;20213;-81
2021/03/03 01:02:35;;;;;;;14.73;10.47;;;10.50;96.30;;;;;;5021531;28;20474;-81
2021/03/03 01:05:01;;;;;;;19.60;10.33;;;10.40;96.30;;;;;;5026619;28;20459;-82
2021/03/03 01:07:27;;;;;;;12.50;8.57;;;10.40;96.20;;;;;;5052338;28;20200;-81
2021/03/03 01:09:52;;;;;;;16.97;11.00;;;10.50;96.20;;;;;;5049884;28;20267;-81
2021/03/03 01:12:18;;;;;;;14.07;9.40;;;10.40;96.20;;;;;;5052684;28;20185;-80
2021/03/03 01:14:44;;;;;;;16.67;9.50;;;10.40;96.20;;;;;;5044536;28;20198;-81
2021/03/03 01:17:09;;;;;;;19.47;10.60;;;10.50;96.20;;;;;;5054026;28;20223;-81
2021/03/03 01:19:35;;;;;;;14.07;9.80;;;10.50;96.20;;;;;;5046434;28;20296;-82
2021/03/03 01:22:01;;;;;;;15.53;9.40;;;10.40;96.20;;;;;;5051875;28;20197;-81
2021/03/03 01:24:27;;;;;;;14.87;9.87;;;10.50;96.20;;;;;;5039747;28;20424;-81
2021/03/03 01:26:52;;;;;;;16.60;9.70;;;10.40;96.10;;;;;;5036105;28;20641;-82
2021/03/03 01:29:18;;;;;;;14.30;9.17;;;10.10;96.00;;;;;;5080573;28;20189;-81
2021/03/03 01:31:43;;;;;;;17.63;10.57;;;10.30;96.10;;;;;;5026156;28;20194;-81
2021/03/03 01:34:09;;;;;;;15.43;9.73;;;10.50;96.20;;;;;;5035490;28;20551;-81
2021/03/03 01:36:35;;;;;;;16.30;9.07;;;10.30;96.10;;;;;;5045968;28;20181;-81
2021/03/03 01:39:00;;;;;;;17.00;9.47;;;10.30;96.10;;;;;;5031358;28;20689;-81
2021/03/03 01:41:26;;;;;;;16.00;9.93;;;10.20;96.20;;;;;;5053689;28;20295;-81
2021/03/03 01:43:52;;;;;;;13.70;9.20;;;10.20;96.00;;;;;;5056108;28;20188;-81
2021/03/03 01:46:18;;;;;;;14.00;9.50;;;10.10;96.10;;;;;;5057827;28;20189;-81
2021/03/03 01:48:43;;;;;;;18.30;10.50;;;9.70;96.60;;;;;;5033761;28;20193;-81
2021/03/03 01:51:09;;;;;;;14.17;9.23;;;10.10;96.40;;;;;;5023187;28;20209;-81
2021/03/03 01:53:35;;;;;;;15.60;9.40;;;10.10;96.60;;;;;;5053430;28;20264;-81
2021/03/03 01:56:01;;;;;;;14.03;9.20;;;10.00;96.30;;;;;;5059237;28;20815;-81
2021/03/03 01:58:27;;;;;;;13.50;9.33;;;10.10;96.20;;;;;;5038039;28;20236;-82
2021/03/03 02:00:53;;;;;;;15.57;9.87;;;10.30;96.30;;;;;;5050492;28;20483;-82
2021/03/03 02:03:19;;;;;;;15.73;9.27;;;10.00;96.20;;;;;;5049235;28;20192;-81
2021/03/03 02:05:44;;;;;;;14.20;9.80;;;10.00;96.20;;;;;;5073022;28;20185;-81
2021/03/03 02:08:17;;;;;;;16.70;10.17;;;10.00;96.30;;;;;;5041994;28;20171;-81
2021/03/03 02:11:19;;;;;;;15.63;9.63;;;10.00;96.10;;;;;;5055550;28;20265;-81
2021/03/03 02:13:49;;;;;;;15.90;9.43;;;9.90;96.60;;;;;;5059482;28;20967;-81
2021/03/03 02:16:15;;;;;;;15.23;10.53;;;10.10;96.30;;;;;;5053929;28;20959;-81
2021/03/03 02:18:42;;;;;;;14.60;10.20;;;9.90;96.50;;;;;;5038669;28;20563;-81
2021/03/03 02:21:17;;;;;;;17.53;10.53;;;10.00;95.90;;;;;;5064576;28;20468;-82
2021/03/03 02:23:51;;;;;;;19.07;10.77;;;10.00;95.80;;;;;;5065352;28;20427;-81
2021/03/03 02:26:20;;;;;;;14.80;9.27;;;10.00;95.90;;;;;;5046208;28;20424;-82
2021/03/03 02:28:47;;;;;;;19.27;11.07;;;10.00;95.90;;;;;;5053925;28;20438;-82
2021/03/03 02:31:14;;;;;;;15.67;9.67;;;10.10;95.90;;;;;;5066082;28;20451;-81
2021/03/03 02:33:42;;;;;;;12.80;8.80;;;10.10;96.10;;;;;;5068407;28;20432;-82
2021/03/03 02:36:09;;;;;;;17.60;10.93;;;9.90;96.60;;;;;;5055451;28;20425;-82
2021/03/03 02:38:39;;;;;;;17.87;10.27;;;10.00;96.40;;;;;;5038004;28;20465;-83
2021/03/03 02:41:05;;;;;;;19.97;9.80;;;9.70;96.40;;;;;;5052397;28;20452;-81
2021/03/03 02:43:31;;;;;;;16.60;10.07;;;10.00;96.00;;;;;;5067955;28;20423;-82
2021/03/03 02:45:57;;;;;;;15.23;10.10;;;10.00;96.10;;;;;;5025414;28;20440;-82
2021/03/03 02:48:23;;;;;;;15.70;9.77;;;9.80;96.70;;;;;;5069629;28;20428;-81
2021/03/03 02:50:49;;;;;;;15.20;10.00;;;9.80;96.60;;;;;;5026217;28;20463;-81
2021/03/03 02:53:14;;;;;;;15.20;9.50;;;9.90;97.00;;;;;;5048270;28;20590;-81
2021/03/03 02:55:40;;;;;;;17.50;10.07;;;10.00;96.10;;;;;;5087178;28;20181;-81
2021/03/03 02:58:06;;;;;;;20.50;10.60;;;9.90;96.50;;;;;;5051030;28;20192;-82
2021/03/03 03:00:33;;;;;;;20.50;9.97;;;9.90;96.40;;;;;;5067023;28;20208;-81
2021/03/03 03:03:17;;;;;;;17.70;9.13;;;9.90;96.40;;;;;;5026969;28;20230;-81
2021/03/03 03:05:46;;;;;;;15.93;8.60;;;9.70;96.30;;;;;;5060048;28;20455;-83
2021/03/03 03:08:16;;;;;;;17.03;9.63;;;9.80;96.50;;;;;;5063799;28;20408;-81
2021/03/03 03:10:42;;;;;;;13.90;9.60;;;10.00;96.00;;;;;;5032614;28;20476;-83
2021/03/03 03:13:11;;;;;;;15.87;10.10;;;9.70;96.60;;;;;;5037607;28;20412;-83
2021/03/03 03:15:37;;;;;;;17.93;10.60;;;9.90;96.80;;;;;;5032991;28;20437;-82
2021/03/03 03:18:18;;;;;;;15.50;9.57;;;9.80;96.60;;;;;;5028542;28;20416;-82
2021/03/03 03:20:45;;;;;;;16.03;9.80;;;9.60;96.50;;;;;;5066932;28;20443;-83
2021/03/03 03:23:12;;;;;;;16.47;9.90;;;9.70;96.40;;;;;;5049173;28;20424;-83
2021/03/03 03:25:39;;;;;;;15.63;10.17;;;9.90;96.40;;;;;;5053813;28;20430;-82
2021/03/03 03:28:05;;;;;;;19.10;10.70;;;10.00;95.60;;;;;;5053393;28;20427;-82
2021/03/03 03:30:31;;;;;;;17.20;10.90;;;9.70;96.10;;;;;;5052696;28;20534;-82
2021/03/03 03:32:58;;;;;;;17.30;9.67;;;9.80;96.00;;;;;;5059680;28;20478;-81
2021/03/03 03:35:26;;;;;;;14.97;9.70;;;9.90;95.90;;;;;;5061416;28;20416;-81
2021/03/03 03:37:53;;;;;;;15.97;8.93;;;10.00;95.40;;;;;;5040256;28;20433;-83
2021/03/03 03:40:20;;;;;;;14.77;10.07;;;9.80;95.80;;;;;;5031474;28;21041;-81
2021/03/03 03:42:46;;;;;;;17.30;10.50;;;9.90;95.90;;;;;;5048802;28;20547;-84
2021/03/03 03:45:14;;;;;;;15.53;9.93;;;9.80;95.90;;;;;;5055330;28;20417;-81
2021/03/03 03:47:42;;;;;;;14.73;9.60;;;9.70;96.10;;;;;;5037804;28;20440;-83
2021/03/03 03:50:08;;;;;;;14.53;9.07;;;9.60;96.20;;;;;;5045874;28;20449;-83
2021/03/03 03:52:35;;;;;;;15.97;9.80;;;9.70;96.30;;;;;;5060319;28;20537;-82
2021/03/03 03:55:01;;;;;;;15.20;9.87;;;9.80;96.40;;;;;;5052279;28;20519;-83
2021/03/03 03:57:27;;;;;;;18.33;10.27;;;9.60;96.30;;;;;;5057925;28;20412;-81
2021/03/03 03:59:53;;;;;;;16.77;10.17;;;9.50;96.40;;;;;;5067122;28;20544;-83
2021/03/03 04:02:19;;;;;;;16.97;11.13;;;9.60;96.20;;;;;;5039447;28;20508;-82
2021/03/03 04:04:45;;;;;;;18.10;10.20;;;9.30;96.00;;;;;;5038274;28;20177;-83
2021/03/03 04:07:11;;;;;;;19.00;9.60;;;9.60;96.20;;;;;;5055578;28;20435;-83
2021/03/03 04:09:36;;;;;;;14.07;9.90;;;9.60;96.20;;;;;;5063589;28;20459;-83
2021/03/03 04:12:02;;;;;;;16.30;9.80;;;9.60;96.20;;;;;;5038966;28;20435;-81
2021/03/03 04:14:28;;;;;;;17.83;10.30;;;9.60;96.50;;;;;;5065699;28;20719;-83
2021/03/03 04:16:54;;;;;;;15.40;10.73;;;9.60;96.60;;;;;;5054094;28;20418;-82
2021/03/03 04:19:20;;;;;;;16.70;9.67;;;9.60;96.40;;;;;;5048827;28;20470;-81
2021/03/03 04:21:46;;;;;;;14.33;9.13;;;9.50;96.60;;;;;;5058616;28;20209;-83
2021/03/03 04:24:13;;;;;;;15.50;10.37;;;9.50;97.10;;;;;;5052544;28;20201;-83
2021/03/03 04:26:38;;;;;;;15.30;10.27;;;9.50;97.10;;;;;;5051065;28;20423;-81
2021/03/03 04:29:04;;;;;;;14.60;9.57;;;9.30;97.00;;;;;;5052398;28;20420;-82
2021/03/03 04:31:30;;;;;;;16.77;10.33;;;9.30;96.80;;;;;;5048802;28;20228;-82
2021/03/03 04:33:55;;;;;;;15.73;10.20;;;9.30;96.40;;;;;;5036208;28;20277;-82
2021/03/03 04:36:21;;;;;;;20.00;9.70;;;9.40;96.20;;;;;;5056374;28;20186;-81
2021/03/03 04:38:46;;;;;;;19.03;10.00;;;9.40;96.10;;;;;;5049169;28;20224;-81
2021/03/03 04:41:12;;;;;;;18.30;10.67;;;9.70;96.20;;;;;;5032670;28;20208;-83
2021/03/03 04:43:38;;;;;;;13.57;9.80;;;9.60;96.10;;;;;;5060629;28;20185;-83
2021/03/03 04:46:04;;;;;;;16.13;10.37;;;9.40;95.80;;;;;;5049140;28;20553;-83
2021/03/03 04:48:29;;;;;;;19.40;10.53;;;9.60;95.90;;;;;;5054000;28;20245;-81
2021/03/03 04:50:55;;;;;;;18.37;10.67;;;9.60;95.90;;;;;;5023450;28;20207;-83
2021/03/03 04:53:21;;;;;;;17.70;10.30;;;9.80;96.30;;;;;;5052734;28;20232;-82
2021/03/03 04:55:47;;;;;;;21.10;10.57;;;9.70;95.80;;;;;;5036128;28;20674;-81
2021/03/03 04:58:12;;;;;;;16.47;10.60;;;9.70;95.70;;;;;;5035282;28;20429;-83
2021/03/03 05:00:38;;;;;;;22.80;10.33;;;9.60;95.80;;;;;;5056845;28;20254;-83
2021/03/03 05:03:04;;;;;;;17.80;10.07;;;9.60;95.80;;;;;;5040128;28;20182;-82
2021/03/03 05:05:30;;;;;;;16.83;10.13;;;9.70;95.60;;;;;;5020351;28;20221;-83
2021/03/03 05:07:55;;;;;;;16.60;10.40;;;9.70;95.50;;;;;;5052411;28;20412;-82
2021/03/03 05:10:21;;;;;;;17.57;10.87;;;9.80;95.70;;;;;;5036595;28;20237;-83
2021/03/03 05:12:46;;;;;;;15.57;9.70;;;9.70;95.60;;;;;;5064413;28;20224;-82
2021/03/03 05:15:13;;;;;;;18.00;9.83;;;9.70;95.60;;;;;;5046699;28;20196;-82
2021/03/03 05:17:38;;;;;;;16.60;10.27;;;9.70;95.80;;;;;;5038756;28;20204;-83
2021/03/03 05:20:06;;;;;;;15.70;10.50;;;9.90;95.80;;;;;;5056160;28;20464;-82
2021/03/03 05:22:32;;;;;;;13.80;9.90;;;9.80;95.90;;;;;;5070618;28;20178;-82
2021/03/03 05:24:58;;;;;;;16.33;10.00;;;9.60;96.00;;;;;;5064026;28;20493;-83
2021/03/03 05:27:23;;;;;;;14.60;9.57;;;9.60;96.10;;;;;;5049161;28;21073;-83
2021/03/03 05:29:49;;;;;;;19.60;10.00;;;9.60;95.90;;;;;;5039565;28;20188;-82
2021/03/03 05:32:14;;;;;;;20.17;9.60;;;9.50;95.90;;;;;;5057281;28;20186;-82
2021/03/03 05:34:40;;;;;;;17.87;10.47;;;9.70;96.10;;;;;;5068109;28;20208;-83
2021/03/03 05:37:06;;;;;;;16.90;10.70;;;9.70;96.00;;;;;;5039578;28;20248;-83
2021/03/03 05:39:31;;;;;;;15.60;10.50;;;9.50;96.00;;;;;;5056107;28;20551;-82
2021/03/03 05:42:01;;;;;;;17.43;9.47;;;8.90;95.80;;;;;;5039931;28;20182;-81
2021/03/03 05:44:27;;;;;;;20.03;9.80;;;9.50;96.00;;;;;;5060929;28;20189;-81
2021/03/03 05:46:56;;;;;;;15.10;9.27;;;9.40;96.30;;;;;;5055011;28;20425;-82
2021/03/03 05:49:25;;;;;;;15.30;10.20;;;9.40;96.10;;;;;;5030888;28;20484;-81
2021/03/03 05:51:53;;;;;;;17.03;9.63;;;9.30;95.80;;;;;;5062909;28;20482;-81
2021/03/03 05:54:20;;;;;;;14.40;9.47;;;9.50;95.90;;;;;;5043046;28;20839;-81
2021/03/03 05:56:48;;;;;;;15.53;9.07;;;9.60;95.80;;;;;;5051298;28;20459;-81
2021/03/03 05:59:16;;;;;;;21.20;9.70;;;9.50;95.90;;;;;;5054777;28;20452;-83
2021/03/03 06:01:47;;;;;;;14.43;10.23;;;9.50;95.80;;;;;;5048406;28;20443;-82
2021/03/03 06:04:13;;;;;;;17.60;10.27;;;9.50;96.00;;;;;;5039276;28;20413;-83
2021/03/03 06:06:41;;;;;;;15.97;9.83;;;9.50;95.90;;;;;;5018864;28;20448;-83
2021/03/03 06:09:07;;;;;;;14.50;9.60;;;9.40;95.80;;;;;;5056215;28;20197;-83
2021/03/03 06:11:33;;;;;;;17.10;10.30;;;9.50;95.80;;;;;;5038894;28;20440;-83
2021/03/03 06:13:59;;;;;;;16.60;10.20;;;9.50;95.80;;;;;;5052365;28;20186;-82
2021/03/03 06:16:25;;;;;;;17.83;10.03;;;9.60;95.90;;;;;;5048974;28;20421;-83
2021/03/03 06:18:53;;;;;;;13.67;9.43;;;9.60;95.60;;;;;;5062100;28;20455;-83
2021/03/03 06:21:27;;;;;;;18.47;9.30;;;9.70;95.70;;;;;;5047163;28;20436;-82
2021/03/03 06:24:04;;;;;;;16.63;9.83;;;9.50;96.50;;;;;;5055462;28;20403;-83
2021/03/03 06:26:30;;;;;;;15.97;10.13;;;9.50;96.00;;;;;;5049308;28;20420;-82
2021/03/03 06:28:56;;;;;;;14.00;9.57;;;9.50;96.10;;;;;;5047112;28;20514;-83
2021/03/03 06:31:32;;;;;;;15.83;10.30;;;9.40;96.30;;;;;;5055107;28;20206;-82
2021/03/03 06:34:22;;;;;;;17.27;9.43;;;9.50;96.20;;;;;;5043894;28;20273;-82
2021/03/03 06:36:55;;;;;;;14.23;9.43;;;9.50;96.90;;;;;;5054789;28;20812;-81
2021/03/03 06:39:28;;;;;;;15.83;9.53;;;9.60;96.40;;;;;;5067436;28;20447;-81
2021/03/03 06:41:56;;;;;;;17.93;9.83;;;9.60;95.90;;;;;;5018152;28;20449;-82
2021/03/03 06:44:22;;;;;;;16.63;10.87;;;9.60;95.50;;;;;;5080823;28;20786;-81
2021/03/03 06:47:01;;;;;;;21.23;11.23;;;10.00;94.90;;;;;;5036288;28;20416;-81
2021/03/03 06:49:27;;;;;;;17.30;10.40;;;9.70;95.40;;;;;;5052489;28;20416;-82
2021/03/03 06:51:54;;;;;;;15.40;9.13;;;9.70;95.30;;;;;;5021747;28;20440;-82
2021/03/03 06:54:21;;;;;;;18.70;9.13;;;9.90;95.50;;;;;;5057552;28;20181;-82
2021/03/03 06:56:53;;;;;;;11.73;8.80;;;9.70;95.70;;;;;;5024760;28;20796;-81
2021/03/03 06:59:21;;;;;;;19.60;11.13;;;9.60;96.30;;;;;;5054534;28;20960;-83
2021/03/03 07:01:56;;;;;;;17.50;10.10;;;9.40;97.50;;;;;;5054918;28;20437;-82
2021/03/03 07:04:26;;;;;;;14.87;9.60;;;9.60;97.60;;;;;;5038914;28;20513;-82
2021/03/03 07:06:53;;;;;;;16.20;10.17;;;9.50;96.10;;;;;;5042637;28;20441;-81
2021/03/03 07:09:21;;;;;;;19.13;10.00;;;9.70;95.70;;;;;;5059636;28;20435;-82
2021/03/03 07:11:47;;;;;;;18.77;11.00;;;9.70;95.70;;;;;;5059215;28;20517;-81
2021/03/03 07:14:17;;;;;;;16.10;10.03;;;9.90;95.80;;;;;;5063668;28;20420;-82
2021/03/03 07:17:06;;;;;;;18.50;10.60;;;9.70;95.60;;;;;;5071402;28;20435;-81
2021/03/03 07:19:33;;;;;;;19.70;10.27;;;9.90;95.80;;;;;;5058647;28;20448;-82
2021/03/03 07:21:59;;;;;;;14.60;9.93;;;9.90;95.80;;;;;;5069753;28;20417;-82
2021/03/03 07:24:26;;;;;;;18.00;10.70;;;9.80;95.70;;;;;;5035008;28;20503;-81
2021/03/03 07:26:52;;;;;;;18.67;10.40;;;9.80;95.80;;;;;;5057116;28;20701;-82
2021/03/03 07:29:18;;;;;;;18.80;10.27;;;9.90;95.50;;;;;;5042768;28;20413;-81
2021/03/03 07:31:45;;;;;;;19.53;10.30;;;9.90;95.50;;;;;;5046679;28;21152;-82
2021/03/03 07:34:11;;;;;;;17.60;10.37;;;10.00;94.80;;;;;;5052943;28;20508;-82
2021/03/03 07:36:38;;;;;;;15.03;9.90;;;10.00;95.00;;;;;;5057498;28;20450;-81
2021/03/03 07:39:08;;;;;;;21.90;10.17;;;10.00;94.90;;;;;;5030608;28;20521;-81
2021/03/03 07:41:42;;;;;;;16.33;9.80;;;10.10;94.90;;;;;;5062246;28;20451;-82
2021/03/03 07:44:10;;;;;;;16.50;10.47;;;9.90;95.40;;;;;;5035130;28;20426;-81
2021/03/03 07:46:39;;;;;;;19.07;10.30;;;10.10;94.70;;;;;;5056316;28;20502;-82
2021/03/03 07:49:07;;;;;;;20.07;9.83;;;10.00;94.70;;;;;;5023277;28;20794;-84
2021/03/03 07:51:33;;;;;;;13.80;10.03;;;10.10;94.80;;;;;;5073316;28;20451;-82
2021/03/03 07:53:59;;;;;;;18.23;10.20;;;10.00;94.60;;;;;;5052782;28;20417;-84
2021/03/03 07:56:25;;;;;;;16.23;10.27;;;10.10;94.90;;;;;;5020016;28;20190;-82
2021/03/03 07:58:51;;;;;;;16.90;10.70;;;10.20;94.90;;;;;;5046934;28;20736;-82
2021/03/03 08:01:17;;;;;;;20.50;9.80;;;10.40;95.00;;;;;;5056315;28;20733;-83
2021/03/03 08:03:47;;;;;;;18.77;11.53;;;9.80;95.40;;;;;;5039470;28;20486;-81
2021/03/03 08:06:36;;;;;;;17.73;11.20;;;10.20;95.20;;;;;;5061798;28;20499;-82
2021/03/03 08:09:05;;;;;;;17.00;10.23;;;10.30;95.30;;;;;;5040476;28;20494;-82
2021/03/03 08:11:38;;;;;;;19.20;11.03;;;10.50;94.90;;;;;;5065456;28;20851;-82
2021/03/03 08:14:50;;;;;;;17.20;11.23;;;10.70;94.90;;;;;;5044747;28;20428;-82
2021/03/03 08:17:25;;;;;;;16.77;11.00;;;10.90;94.40;;;;;;5053698;28;20438;-84
2021/03/03 08:20:01;;;;;;;17.63;11.70;;;11.00;94.30;;;;;;5062296;28;20495;-83
2021/03/03 08:22:56;;;;;;;19.80;11.07;;;11.20;94.50;;;;;;5052239;28;20507;-82
2021/03/03 08:25:49;;;;;;;16.50;10.43;;;11.40;94.50;;;;;;5056690;28;20408;-82
2021/03/03 08:28:28;;;;;;;17.50;10.83;;;11.70;94.40;;;;;;5051641;28;20432;-82
2021/03/03 08:31:09;;;;;;;19.90;11.20;;;12.00;94.20;;;;;;5066909;28;20435;-81
2021/03/03 08:33:40;;;;;;;16.20;10.37;;;12.10;94.10;;;;;;5059861;28;20408;-82
2021/03/03 08:36:07;;;;;;;17.93;10.60;;;12.10;93.90;;;;;;5034379;28;20503;-82
2021/03/03 08:38:34;;;;;;;14.03;10.77;;;12.10;93.60;;;;;;5055595;28;20468;-83
2021/03/03 08:41:15;;;;;;;18.20;11.93;;;12.10;93.30;;;;;;5026600;28;20457;-82
2021/03/03 08:43:45;;;;;;;19.00;10.27;;;12.10;93.20;;;;;;5047901;28;20435;-82
2021/03/03 08:46:20;;;;;;;17.70;10.57;;;12.00;93.80;;;;;;5054126;28;20432;-82
2021/03/03 08:49:06;;;;;;;18.87;11.57;;;11.90;93.40;;;;;;5065674;28;20543;-83
2021/03/03 08:51:43;;;;;;;18.97;11.27;;;11.90;93.30;;;;;;5039338;28;20440;-82
2021/03/03 08:54:12;;;;;;;16.40;11.30;;;11.90;93.40;;;;;;5066622;28;20427;-82
2021/03/03 08:56:41;;;;;;;19.07;11.70;;;11.90;93.40;;;;;;5072444;28;20442;-82
2021/03/03 08:59:07;;;;;;;16.90;11.10;;;12.10;93.50;;;;;;5020567;28;20465;-82
2021/03/03 09:01:54;;;;;;;18.37;11.87;;;11.90;93.90;;;;;;5040015;28;20445;-81
2021/03/03 09:04:28;;;;;;;18.77;11.60;;;12.00;93.70;;;;;;5037283;28;20504;-82
2021/03/03 09:06:57;;;;;;;23.47;12.53;;;12.00;93.90;;;;;;5051516;28;20998;-83
2021/03/03 09:09:24;;;;;;;23.80;12.10;;;12.00;93.90;;;;;;5051322;28;20412;-82
2021/03/03 09:12:08;;;;;;;19.03;12.23;;;12.10;93.90;;;;;;5052502;28;20451;-82
2021/03/03 09:14:35;;;;;;;16.77;11.30;;;12.30;93.80;;;;;;5052265;28;20447;-82
2021/03/03 09:17:04;;;;;;;21.60;12.33;;;12.40;93.60;;;;;;5033854;28;20444;-84
2021/03/03 09:19:31;;;;;;;19.07;11.43;;;12.50;93.60;;;;;;5052695;28;21066;-83
2021/03/03 09:21:57;;;;;;;21.60;12.43;;;12.70;93.70;;;;;;5052329;28;20456;-82
2021/03/03 09:24:23;;;;;;;19.70;12.23;;;12.90;93.20;;;;;;5068819;28;20431;-83
2021/03/03 09:27:03;;;;;;;20.30;13.00;;;13.10;93.40;;;;;;5050263;28;20427;-82
2021/03/03 09:29:31;;;;;;;19.60;12.17;;;13.20;92.60;;;;;;5050315;28;20198;-84
2021/03/03 09:32:03;;;;;;;19.33;13.33;;;13.20;92.90;;;;;;5039144;28;20416;-82
2021/03/03 09:34:29;;;;;;;22.07;13.90;;;13.30;92.60;;;;;;5044178;28;20416;-82
2021/03/03 09:37:00;;;;;;;21.80;14.60;;;13.40;92.30;;;;;;5047683;28;20538;-82
2021/03/03 09:39:27;;;;;;;22.87;13.33;;;13.40;92.00;;;;;;5054489;28;20236;-82
2021/03/03 09:41:58;;;;;;;20.60;13.53;;;13.50;92.40;;;;;;5067455;28;20439;-82
2021/03/03 09:44:23;;;;;;;21.80;14.30;;;13.70;92.60;;;;;;5032945;28;20433;-82
2021/03/03 09:47:00;;;;;;;18.90;12.83;;;13.90;91.70;;;;;;5051893;28;20451;-82
2021/03/03 09:49:27;;;;;;;21.40;13.33;;;14.00;91.80;;;;;;5051590;28;20437;-82
2021/03/03 09:51:53;;;;;;;25.40;14.90;;;14.10;91.90;;;;;;5071831;28;20546;-82
2021/03/03 09:54:36;;;;;;;22.43;15.13;;;14.20;91.40;;;;;;5038885;28;20450;-82
2021/03/03 09:57:09;;;;;;;21.73;13.77;;;14.20;91.40;;;;;;5045604;28;21099;-82
2021/03/03 09:59:37;;;;;;;21.40;14.53;;;14.20;91.10;;;;;;5066294;28;20479;-81
2021/03/03 10:02:05;;;;;;;21.10;14.40;;;14.20;91.30;;;;;;5037756;28;20424;-82
2021/03/03 10:04:31;;;;;;;21.67;13.90;;;14.20;91.50;;;;;;5062980;28;20420;-81
2021/03/03 10:06:58;;;;;;;21.87;14.40;;;14.20;91.70;;;;;;5064937;28;20448;-82
2021/03/03 10:09:25;;;;;;;25.57;14.33;;;14.30;92.00;;;;;;5042794;28;20439;-83
2021/03/03 10:11:50;;;;;;;22.17;14.77;;;14.30;91.70;;;;;;5041452;28;20540;-82
2021/03/03 10:14:16;;;;;;;21.07;15.03;;;14.40;91.90;;;;;;5063918;28;21199;-82
2021/03/03 10:16:56;;;;;;;24.53;15.37;;;14.50;91.50;;;;;;5037652;28;20204;-83
2021/03/03 10:19:22;;;;;;;23.97;15.80;;;14.60;91.40;;;;;;5051807;28;20291;-82
2021/03/03 10:21:48;;;;;;;28.43;16.50;;;14.70;91.50;;;;;;5043405;28;20448;-82
2021/03/03 10:24:19;;;;;;;26.83;15.70;;;14.90;91.40;;;;;;5071928;28;20656;-82
2021/03/03 10:26:50;;;;;;;25.43;16.40;;;15.00;90.70;;;;;;5070629;28;20196;-81
2021/03/03 10:29:36;;;;;;;24.83;15.73;;;15.10;91.30;;;;;;5055895;28;21100;-82
2021/03/03 10:32:09;;;;;;;24.83;16.43;;;15.20;91.30;;;;;;5055546;28;20455;-81
2021/03/03 10:34:35;;;;;;;28.77;16.33;;;15.40;91.20;;;;;;5054364;28;20523;-82
2021/03/03 10:37:01;;;;;;;26.80;17.07;;;15.50;91.30;;;;;;5045779;28;20858;-82
2021/03/03 10:39:28;;;;;;;22.30;16.30;;;15.80;91.00;;;;;;5035244;28;20205;-82
2021/03/03 10:42:06;;;;;;;28.00;19.40;;;16.00;90.50;;;;;;5020675;28;20570;-80
2021/03/03 10:44:41;;;;;;;25.07;18.37;;;16.10;90.20;;;;;;5042926;28;20441;-84
2021/03/03 10:47:08;;;;;;;25.00;17.90;;;16.40;90.50;;;;;;5044194;28;20940;-84
2021/03/03 10:49:38;;;;;;;36.03;23.37;;;16.60;90.30;;;;;;5042078;28;20942;-83
2021/03/03 10:52:20;;;;;;;29.97;22.37;;;16.80;90.20;;;;;;5042661;28;20421;-83
2021/03/03 10:54:46;;;;;;;37.37;25.77;;;16.60;91.00;;;;;;5028641;28;20658;-84
2021/03/03 10:57:12;;;;;;;38.43;26.80;;;16.70;90.50;;;;;;5055086;28;20423;-83
2021/03/03 10:59:38;;;;;;;38.23;25.80;;;16.70;90.40;;;;;;5044061;28;20470;-84
2021/03/03 11:02:08;;;;;;;38.97;27.50;;;16.80;91.10;;;;;;5068607;28;20261;-83
2021/03/03 11:04:44;;;;;;;35.17;26.93;;;16.90;90.30;;;;;;5068785;28;20511;-82
2021/03/03 11:07:16;;;;;;;34.53;26.20;;;17.00;91.00;;;;;;5055763;28;20440;-83
2021/03/03 11:09:50;;;;;;;37.83;25.83;;;17.10;91.00;;;;;;5049341;28;20543;-84
2021/03/03 11:12:25;;;;;;;40.40;28.17;;;17.10;91.00;;;;;;5071575;28;20424;-84
2021/03/03 11:14:50;;;;;;;43.17;27.13;;;17.20;91.50;;;;;;5052803;28;20566;-83
2021/03/03 11:17:16;;;;;;;33.27;26.20;;;17.10;90.40;;;;;;5038906;28;20492;-83
2021/03/03 11:19:42;;;;;;;38.53;27.63;;;17.00;90.40;;;;;;5057684;28;20221;-84
2021/03/03 11:22:08;;;;;;;36.80;27.70;;;17.00;90.80;;;;;;5055269;28;20272;-83
2021/03/03 11:24:34;;;;;;;35.47;26.03;;;16.90;90.70;;;;;;5039071;28;20510;-83
2021/03/03 11:26:59;;;;;;;40.87;27.87;;;16.90;91.10;;;;;;5050346;28;20193;-84
2021/03/03 11:29:25;;;;;;;40.50;24.77;;;16.90;91.10;;;;;;5053727;28;20193;-83
2021/03/03 11:31:51;;;;;;;34.90;25.23;;;17.00;90.80;;;;;;5075140;28;20209;-84
2021/03/03 11:34:16;;;;;;;36.33;24.70;;;17.20;91.50;;;;;;5069680;28;20219;-84
2021/03/03 11:36:42;;;;;;;36.53;25.83;;;17.20;90.90;;;;;;5060577;28;20576;-84
2021/03/03 11:39:09;;;;;;;34.60;24.57;;;17.10;90.00;;;;;;5072762;28;20245;-82
2021/03/03 11:41:36;;;;;;;35.83;25.20;;;16.90;90.40;;;;;;5058697;28;20436;-84
2021/03/03 11:44:04;;;;;;;36.43;26.33;;;17.10;91.00;;;;;;5033873;28;20936;-84
2021/03/03 11:46:29;;;;;;;36.40;24.53;;;17.30;90.50;;;;;;5036905;28;20413;-83
2021/03/03 11:48:55;;;;;;;31.07;23.60;;;17.50;90.50;;;;;;5057305;28;20504;-85
2021/03/03 11:51:21;;;;;;;31.67;24.23;;;17.60;89.20;;;;;;5024203;28;20200;-83
2021/03/03 11:53:46;;;;;;;33.60;23.47;;;17.60;89.00;;;;;;5053695;28;20662;-84
2021/03/03 11:56:12;;;;;;;33.83;23.10;;;17.70;88.80;;;;;;5053053;28;20190;-82
2021/03/03 11:58:38;;;;;;;36.07;23.53;;;17.80;89.00;;;;;;5067765;28;20201;-82
2021/03/03 12:01:03;;;;;;;27.47;22.17;;;17.80;88.50;;;;;;5079058;28;20268;-82
2021/03/03 12:03:29;;;;;;;33.10;23.30;;;17.80;89.10;;;;;;5049184;28;20185;-82
2021/03/03 12:05:55;;;;;;;36.10;22.77;;;17.80;87.30;;;;;;5066397;28;20428;-81
2021/03/03 12:08:21;;;;;;;32.53;23.67;;;17.80;88.00;;;;;;5034081;28;20224;-82
2021/03/03 12:10:46;;;;;;;32.93;24.57;;;18.00;88.50;;;;;;5052333;28;20209;-82
2021/03/03 12:13:12;;;;;;;36.20;23.13;;;18.20;88.40;;;;;;5019081;28;20200;-82
2021/03/03 12:15:38;;;;;;;32.50;23.90;;;18.40;87.40;;;;;;5059768;28;20177;-83
2021/03/03 12:18:03;;;;;;;36.30;23.60;;;18.50;86.40;;;;;;5052511;28;20200;-82
2021/03/03 12:20:30;;;;;;;29.43;22.47;;;18.50;85.90;;;;;;5050532;28;20214;-83
2021/03/03 12:22:56;;;;;;;34.53;24.40;;;18.60;87.00;;;;;;5052786;28;20257;-83
2021/03/03 12:25:23;;;;;;;30.83;23.33;;;18.50;84.70;;;;;;5049610;28;20413;-82
2021/03/03 12:27:48;;;;;;;28.60;22.57;;;18.50;86.40;;;;;;5041566;28;20459;-81
2021/03/03 12:30:15;;;;;;;30.47;22.30;;;18.60;85.60;;;;;;5039569;28;20437;-83
2021/03/03 12:32:41;;;;;;;31.90;22.57;;;18.80;86.50;;;;;;5068523;28;20207;-82
2021/03/03 12:35:07;;;;;;;33.00;22.60;;;18.80;84.80;;;;;;5049370;28;20424;-83
2021/03/03 12:37:32;;;;;;;31.97;22.13;;;18.80;84.10;;;;;;5046567;28;20522;-83
2021/03/03 12:39:58;;;;;;;33.93;24.40;;;18.70;85.90;;;;;;5032156;28;20474;-82